Friedheim, Missouri
Current Conditions -  °F | °C
As of 10:53 AM on Tuesday 27 Jan 2015 (Local Time) from KCGI Reporting Station
Broken Clouds Broken Clouds  
Wind Chill: 38°   Ceiling: 2800
Heat Index: 44°   Visibility: 10mi
Dew Point: 34°   Wind: 13mph
Humidity: 68%   Direction: 360°N
Pressure: 30.16"   Gusts: NA
Location:  37.57°N, 89.82°W
Report Text: KCGI 271653Z 36011KT 10SM BKN028 BKN032 07/01 A3016 RMK AO2 SLP213 T00670011
Loading
Personal Weather Stations






























Interactive Weather Map New forecast layout! Learn more

10-Day Weather Forecast

Advertisements
Track Severe Weather on mobile